createdAt,value
2018-12-03T00:00:20.716Z,12.00
2018-12-03T00:02:52.184Z,12.00
2018-12-03T00:05:20.836Z,11.90
2018-12-03T00:07:49.459Z,11.90
2018-12-03T00:10:18.055Z,11.90
2018-12-03T00:12:46.713Z,11.90
2018-12-03T00:15:15.344Z,11.90
2018-12-03T00:17:43.927Z,11.80
2018-12-03T00:20:12.564Z,11.70
2018-12-03T00:22:41.156Z,11.70
2018-12-03T00:25:09.816Z,11.60
2018-12-03T00:27:38.391Z,11.60
2018-12-03T00:30:09.425Z,11.50
2018-12-03T00:32:38.237Z,11.50
2018-12-03T00:35:08.661Z,11.50
2018-12-03T00:37:37.364Z,11.50
2018-12-03T00:40:06.949Z,11.40
2018-12-03T00:42:35.677Z,11.40
2018-12-03T00:45:04.371Z,11.40
2018-12-03T00:47:32.948Z,11.40
2018-12-03T00:50:01.580Z,11.30
2018-12-03T00:52:30.181Z,11.30
2018-12-03T00:54:58.797Z,11.30
2018-12-03T00:57:27.396Z,11.30
2018-12-03T00:59:55.945Z,11.30
2018-12-03T01:02:26.094Z,11.40
2018-12-03T01:04:55.148Z,11.40
2018-12-03T01:07:23.751Z,11.40
2018-12-03T01:09:52.347Z,11.40
2018-12-03T01:12:20.933Z,11.40
2018-12-03T01:14:49.530Z,11.40
2018-12-03T01:17:18.116Z,11.40
2018-12-03T01:19:46.681Z,11.50
2018-12-03T01:22:15.292Z,11.50
2018-12-03T01:24:43.856Z,11.50
2018-12-03T01:27:12.448Z,11.50
2018-12-03T01:29:41.046Z,11.50
2018-12-03T01:32:09.616Z,11.50
2018-12-03T01:34:38.208Z,11.60
2018-12-03T01:37:06.820Z,11.60
2018-12-03T01:39:35.407Z,11.60
2018-12-03T01:42:03.991Z,11.60
2018-12-03T01:44:32.576Z,11.60
2018-12-03T01:47:01.132Z,11.70
2018-12-03T01:49:29.746Z,11.70
2018-12-03T01:51:58.318Z,11.70
2018-12-03T01:54:26.951Z,11.80
2018-12-03T01:56:55.518Z,11.80
2018-12-03T01:59:24.112Z,11.80
2018-12-03T02:01:52.952Z,11.80
2018-12-03T02:04:21.552Z,11.80
2018-12-03T02:06:50.124Z,11.80
2018-12-03T02:09:18.750Z,11.90
2018-12-03T02:11:47.426Z,11.80
2018-12-03T02:14:16.043Z,11.80
2018-12-03T02:16:44.631Z,11.90
2018-12-03T02:19:13.184Z,11.90
2018-12-03T02:21:41.784Z,11.90
2018-12-03T02:24:10.352Z,11.80
2018-12-03T02:26:38.948Z,11.90
2018-12-03T02:29:07.541Z,11.90
2018-12-03T02:31:36.126Z,11.90
2018-12-03T02:34:04.739Z,11.90
2018-12-03T02:36:33.372Z,11.90
2018-12-03T02:39:01.942Z,11.90
2018-12-03T02:41:30.531Z,11.90
2018-12-03T02:43:59.094Z,12.00
2018-12-03T02:46:27.677Z,12.00
2018-12-03T02:48:56.325Z,11.90
2018-12-03T02:51:24.912Z,11.90
2018-12-03T02:53:53.492Z,11.90
2018-12-03T02:56:22.117Z,11.90
2018-12-03T02:58:50.774Z,11.90
2018-12-03T03:01:19.382Z,11.90
2018-12-03T03:03:47.997Z,11.80
2018-12-03T03:06:16.581Z,11.80
2018-12-03T03:08:45.163Z,11.90
2018-12-03T03:11:13.752Z,11.90
2018-12-03T03:13:42.340Z,11.90
2018-12-03T03:16:10.957Z,11.90
2018-12-03T03:18:39.557Z,11.90
2018-12-03T03:21:08.171Z,11.90
2018-12-03T03:23:36.740Z,11.90
2018-12-03T03:26:05.503Z,11.90
2018-12-03T03:28:34.095Z,11.90
2018-12-03T03:31:02.688Z,11.90
2018-12-03T03:33:31.266Z,12.00
2018-12-03T03:35:59.831Z,12.00
2018-12-03T03:38:28.425Z,12.00
2018-12-03T03:40:57.035Z,12.00
2018-12-03T03:43:25.644Z,12.00
2018-12-03T03:45:54.216Z,12.00
2018-12-03T03:48:22.791Z,12.00
2018-12-03T03:50:51.356Z,11.90
2018-12-03T03:53:19.962Z,11.90
2018-12-03T03:55:48.576Z,11.90
2018-12-03T03:58:17.161Z,11.90
2018-12-03T04:00:45.756Z,11.80
2018-12-03T04:03:14.361Z,11.80
2018-12-03T04:05:42.964Z,11.80
2018-12-03T04:08:11.578Z,11.80
2018-12-03T04:10:40.242Z,11.70
2018-12-03T04:13:08.861Z,11.70
2018-12-03T04:15:37.427Z,11.80
2018-12-03T04:18:06.485Z,11.70
2018-12-03T04:20:35.056Z,11.70
2018-12-03T04:23:03.663Z,11.70
2018-12-03T04:25:32.230Z,11.70
2018-12-03T04:28:00.821Z,11.70
2018-12-03T04:30:29.398Z,11.60
2018-12-03T04:32:58.004Z,11.60
2018-12-03T04:35:27.630Z,11.70
2018-12-03T04:37:56.293Z,11.70
2018-12-03T04:40:24.856Z,11.70
2018-12-03T04:42:53.484Z,11.70
2018-12-03T04:45:22.069Z,11.70
2018-12-03T04:47:51.060Z,11.70
2018-12-03T04:50:21.559Z,11.70
2018-12-03T04:52:50.203Z,11.60
2018-12-03T04:55:19.786Z,11.60
2018-12-03T04:57:48.488Z,11.60
2018-12-03T05:00:20.989Z,11.70
2018-12-03T05:02:50.869Z,11.70
2018-12-03T05:05:19.652Z,11.60
2018-12-03T05:07:48.224Z,11.70
2018-12-03T05:10:17.842Z,11.60
2018-12-03T05:12:47.548Z,11.70
2018-12-03T05:15:16.156Z,11.60
2018-12-03T05:17:44.873Z,11.60
2018-12-03T05:20:14.914Z,11.60
2018-12-03T05:22:44.188Z,11.60
2018-12-03T05:25:12.650Z,11.60
2018-12-03T05:27:41.349Z,11.60
2018-12-03T05:30:12.711Z,11.60
2018-12-03T05:32:41.789Z,11.70
2018-12-03T05:35:11.684Z,11.60
2018-12-03T05:37:40.325Z,11.70
2018-12-03T05:40:16.839Z,11.60
2018-12-03T05:42:45.562Z,11.70
2018-12-03T05:45:14.156Z,11.70
2018-12-03T05:47:42.720Z,11.70
2018-12-03T05:50:16.091Z,11.70
2018-12-03T05:52:46.446Z,11.70
2018-12-03T05:55:15.255Z,11.60
2018-12-03T05:57:44.374Z,11.60
2018-12-03T06:00:18.347Z,11.60
2018-12-03T06:02:46.948Z,11.60
2018-12-03T06:05:15.762Z,11.60
2018-12-03T06:07:44.391Z,11.60
2018-12-03T06:10:17.051Z,11.60
2018-12-03T06:12:45.687Z,11.60
2018-12-03T06:15:15.371Z,11.60
2018-12-03T06:17:43.979Z,11.60
2018-12-03T06:20:16.715Z,11.60
2018-12-03T06:22:45.811Z,11.60
2018-12-03T06:25:16.367Z,11.50
2018-12-03T06:27:44.930Z,11.50
2018-12-03T06:30:15.756Z,11.50
2018-12-03T06:32:44.404Z,11.50
2018-12-03T06:35:14.160Z,11.40
2018-12-03T06:37:42.767Z,11.40
2018-12-03T06:40:14.499Z,11.40
2018-12-03T06:42:43.173Z,11.40
2018-12-03T06:45:14.951Z,11.40
2018-12-03T06:47:45.552Z,11.40
2018-12-03T06:50:14.291Z,11.40
2018-12-03T06:52:42.919Z,11.40
2018-12-03T06:55:11.608Z,11.40
2018-12-03T06:57:40.217Z,11.30
2018-12-03T07:00:12.687Z,11.40
2018-12-03T07:02:41.300Z,11.40
2018-12-03T07:05:10.787Z,11.40
2018-12-03T07:07:39.783Z,11.30
2018-12-03T07:10:13.695Z,11.30
2018-12-03T07:12:42.549Z,11.20
2018-12-03T07:15:12.777Z,11.20
2018-12-03T07:17:41.481Z,11.20
2018-12-03T07:20:13.029Z,11.10
2018-12-03T07:22:41.777Z,11.10
2018-12-03T07:25:11.376Z,11.20
2018-12-03T07:27:40.028Z,11.20
2018-12-03T07:30:16.237Z,11.20
2018-12-03T07:32:45.786Z,11.30
2018-12-03T07:35:14.388Z,11.20
2018-12-03T07:37:43.157Z,11.20
2018-12-03T07:40:12.370Z,11.10
2018-12-03T07:42:41.844Z,11.00
2018-12-03T07:45:13.331Z,10.90
2018-12-03T07:47:41.952Z,10.90
2018-12-03T07:50:12.721Z,10.80
2018-12-03T07:52:41.336Z,10.80
2018-12-03T07:55:12.004Z,10.80
2018-12-03T07:57:42.076Z,10.90
2018-12-03T08:00:15.964Z,10.90
2018-12-03T08:02:44.524Z,10.90
2018-12-03T08:05:13.146Z,10.90
2018-12-03T08:07:41.751Z,11.00
2018-12-03T08:10:16.535Z,10.90
2018-12-03T08:12:46.060Z,11.00
2018-12-03T08:15:17.179Z,10.90
2018-12-03T08:18:02.411Z,10.90
2018-12-03T08:20:43.415Z,11.00
2018-12-03T08:23:19.589Z,11.00
2018-12-03T08:25:48.136Z,11.00
2018-12-03T08:28:16.740Z,11.00
2018-12-03T08:30:45.465Z,11.00
2018-12-03T08:33:14.051Z,11.00
2018-12-03T08:35:42.649Z,11.00
2018-12-03T08:38:11.230Z,11.00
2018-12-03T08:40:39.867Z,11.00
2018-12-03T08:43:08.484Z,11.10
2018-12-03T08:45:37.067Z,11.10
2018-12-03T08:48:06.069Z,11.20
2018-12-03T08:50:34.661Z,11.20
2018-12-03T08:53:03.330Z,11.20
2018-12-03T08:55:31.924Z,11.30
2018-12-03T08:58:00.484Z,11.30
2018-12-03T09:00:30.043Z,11.40
2018-12-03T09:03:05.225Z,11.50
2018-12-03T09:05:36.990Z,11.50
2018-12-03T09:08:08.849Z,11.50
2018-12-03T09:10:37.750Z,11.60
2018-12-03T09:13:09.225Z,11.60
2018-12-03T09:15:37.823Z,11.70
2018-12-03T09:18:06.457Z,11.80
2018-12-03T09:20:35.081Z,11.80
2018-12-03T09:23:03.665Z,11.80
2018-12-03T09:25:32.292Z,11.80
2018-12-03T09:28:00.996Z,11.80
2018-12-03T09:30:29.561Z,11.70
2018-12-03T09:32:58.164Z,11.70
2018-12-03T09:35:26.760Z,11.60
2018-12-03T09:37:55.374Z,11.60
2018-12-03T09:40:26.139Z,11.60
2018-12-03T09:42:55.258Z,11.50
2018-12-03T09:45:23.865Z,11.50
2018-12-03T09:47:54.457Z,11.50
2018-12-03T09:50:23.399Z,11.50
2018-12-03T09:52:52.100Z,11.50
2018-12-03T09:55:22.071Z,11.50
2018-12-03T09:58:00.920Z,11.50
2018-12-03T10:00:29.511Z,11.50
2018-12-03T10:02:59.911Z,11.60
2018-12-03T10:05:35.241Z,11.80
2018-12-03T10:08:03.887Z,11.80
2018-12-03T10:10:32.476Z,11.80
2018-12-03T10:13:08.879Z,11.80
2018-12-03T10:15:37.437Z,11.80
2018-12-03T10:18:06.152Z,11.80
2018-12-03T10:20:34.720Z,11.80
2018-12-03T10:23:03.302Z,11.80
2018-12-03T10:25:31.880Z,11.80
2018-12-03T10:28:04.849Z,11.70
2018-12-03T10:30:33.428Z,11.70
2018-12-03T10:33:33.822Z,11.70
2018-12-03T10:36:05.652Z,11.80
2018-12-03T10:38:35.767Z,11.90
2018-12-03T10:41:09.471Z,11.80
2018-12-03T10:43:38.225Z,11.80
2018-12-03T10:46:08.378Z,11.90
2018-12-03T10:48:37.008Z,11.90
2018-12-03T10:51:12.175Z,12.00
2018-12-03T10:53:40.764Z,12.00
2018-12-03T10:56:09.336Z,12.00
2018-12-03T10:58:40.338Z,12.00
2018-12-03T11:01:15.035Z,12.00
2018-12-03T11:03:49.135Z,12.00
2018-12-03T11:06:20.231Z,11.90
2018-12-03T11:08:48.956Z,11.90
2018-12-03T11:11:17.652Z,12.00
2018-12-03T11:13:46.376Z,12.00
2018-12-03T11:16:27.222Z,12.00
2018-12-03T11:18:56.462Z,12.00
2018-12-03T11:21:25.673Z,11.90
2018-12-03T11:23:54.257Z,11.90
2018-12-03T11:26:31.948Z,11.90
2018-12-03T11:29:01.212Z,11.90
2018-12-03T11:31:32.412Z,12.00
2018-12-03T11:34:01.022Z,12.10
2018-12-03T11:36:39.932Z,12.30
2018-12-03T11:39:19.052Z,12.60
2018-12-03T11:41:48.340Z,12.70
2018-12-03T11:44:23.598Z,12.70
2018-12-03T11:46:52.173Z,12.70
2018-12-03T11:49:23.106Z,12.70
2018-12-03T11:51:51.661Z,12.60
2018-12-03T11:54:22.177Z,12.60
2018-12-03T11:56:51.289Z,12.50
2018-12-03T11:59:19.988Z,12.40
2018-12-03T12:01:48.563Z,12.40
2018-12-03T12:04:17.177Z,12.50
2018-12-03T12:06:49.423Z,12.50
2018-12-03T12:09:21.130Z,12.50
2018-12-03T12:11:49.905Z,12.40
2018-12-03T12:14:28.653Z,12.40
2018-12-03T12:16:57.312Z,12.40
2018-12-03T12:19:25.912Z,12.30
2018-12-03T12:21:54.796Z,12.40
2018-12-03T12:25:13.235Z,12.30
2018-12-03T12:27:54.627Z,12.30
2018-12-03T12:30:23.224Z,12.30
2018-12-03T12:32:51.757Z,12.20
2018-12-03T12:35:20.320Z,12.20
2018-12-03T12:37:56.635Z,12.10
2018-12-03T12:40:21.505Z,12.10
2018-12-03T12:43:09.029Z,12.10
2018-12-03T12:45:43.833Z,12.10
2018-12-03T12:48:13.552Z,12.10
2018-12-03T12:54:14.779Z,12.30
2018-12-03T12:56:44.440Z,12.20
2018-12-03T12:59:13.500Z,12.20
2018-12-03T13:01:42.201Z,12.20
2018-12-03T13:04:11.561Z,12.30
2018-12-03T13:06:40.119Z,12.30
2018-12-03T13:09:10.709Z,12.30
2018-12-03T13:11:42.828Z,12.40
2018-12-03T13:14:16.559Z,12.30
2018-12-03T13:16:45.537Z,12.30
2018-12-03T13:23:25.745Z,12.30
2018-12-03T13:25:57.452Z,12.30
2018-12-03T13:28:37.894Z,12.30
2018-12-03T13:33:51.110Z,12.30
2018-12-03T13:36:19.717Z,12.30
2018-12-03T13:38:49.805Z,12.20
2018-12-03T13:41:19.053Z,12.20
2018-12-03T13:43:47.594Z,12.30
2018-12-03T13:46:29.998Z,12.30
2018-12-03T13:49:03.013Z,12.30
2018-12-03T13:51:35.982Z,12.30
2018-12-03T13:54:05.423Z,12.40
2018-12-03T13:56:36.230Z,12.40
2018-12-03T13:59:06.484Z,12.40
2018-12-03T14:01:35.977Z,12.40
2018-12-03T14:04:13.262Z,12.40
2018-12-03T14:07:55.100Z,12.40
2018-12-03T14:12:37.506Z,12.40
2018-12-03T14:15:22.700Z,12.40
2018-12-03T14:17:56.255Z,12.40
2018-12-03T14:20:25.902Z,12.40
2018-12-03T14:23:15.114Z,12.40
2018-12-03T14:25:43.669Z,12.40
2018-12-03T14:28:15.336Z,12.40
2018-12-03T14:30:44.031Z,12.40
2018-12-03T14:33:14.516Z,12.40
2018-12-03T14:35:43.123Z,12.40
2018-12-03T14:38:11.680Z,12.40
2018-12-03T14:40:51.677Z,12.30
2018-12-03T14:43:20.262Z,12.40
2018-12-03T14:45:48.969Z,12.30
2018-12-03T14:48:17.539Z,12.30
2018-12-03T14:50:46.152Z,12.30
2018-12-03T14:53:14.856Z,12.30
2018-12-03T14:55:43.414Z,12.30
2018-12-03T14:58:12.027Z,12.30
2018-12-03T15:00:41.227Z,12.20
2018-12-03T15:03:10.986Z,12.30
2018-12-03T15:05:39.585Z,12.20
2018-12-03T15:08:09.076Z,12.20
2018-12-03T15:10:38.796Z,12.20
2018-12-03T15:13:07.430Z,12.20
2018-12-03T15:15:35.988Z,12.20
2018-12-03T15:18:05.460Z,12.10
2018-12-03T15:20:34.068Z,12.10
2018-12-03T15:23:02.727Z,12.10
2018-12-03T15:25:31.346Z,12.10
2018-12-03T15:27:59.904Z,12.10
2018-12-03T15:30:28.460Z,12.10
2018-12-03T15:32:57.026Z,12.10
2018-12-03T15:35:25.585Z,12.10
2018-12-03T15:37:54.167Z,12.10
2018-12-03T15:40:23.677Z,12.10
2018-12-03T15:42:52.216Z,12.10
2018-12-03T15:45:20.797Z,12.10
2018-12-03T15:47:49.387Z,12.00
2018-12-03T15:50:18.004Z,12.10
2018-12-03T15:52:46.553Z,12.10
2018-12-03T15:55:15.167Z,12.10
2018-12-03T15:57:43.746Z,12.10
2018-12-03T16:00:13.424Z,12.10
2018-12-03T16:02:42.110Z,12.00
2018-12-03T16:05:13.624Z,11.90
2018-12-03T16:07:42.338Z,11.90
2018-12-03T16:10:12.817Z,11.80
2018-12-03T16:12:41.760Z,11.70
2018-12-03T16:15:10.576Z,11.70
2018-12-03T16:17:39.234Z,11.60
2018-12-03T16:20:09.276Z,11.50
2018-12-03T16:22:37.875Z,11.40
2018-12-03T16:25:07.917Z,11.40
2018-12-03T16:27:36.489Z,11.40
2018-12-03T16:30:08.942Z,11.40
2018-12-03T16:32:37.498Z,11.30
2018-12-03T16:35:06.283Z,11.20
2018-12-03T16:37:34.855Z,11.20
2018-12-03T16:40:03.649Z,11.10
2018-12-03T16:42:32.208Z,11.10
2018-12-03T16:45:01.013Z,11.00
2018-12-03T16:47:29.571Z,11.00
2018-12-03T16:49:58.184Z,11.00
2018-12-03T16:52:29.096Z,10.80
2018-12-03T16:54:57.752Z,10.70
2018-12-03T16:57:26.388Z,10.60
2018-12-03T16:59:55.103Z,10.60
2018-12-03T17:02:23.768Z,10.50
2018-12-03T17:04:52.383Z,10.40
2018-12-03T17:07:20.964Z,10.30
2018-12-03T17:09:49.785Z,10.30
2018-12-03T17:12:20.650Z,10.30
2018-12-03T17:14:49.227Z,10.20
2018-12-03T17:17:17.777Z,10.10
2018-12-03T17:19:46.328Z,10.10
2018-12-03T17:22:33.867Z,10.10
2018-12-03T17:25:02.701Z,10.10
2018-12-03T17:27:31.300Z,10.10
2018-12-03T17:29:59.952Z,10.10
2018-12-03T17:32:28.565Z,10.10
2018-12-03T17:34:57.152Z,10.20
2018-12-03T17:37:25.752Z,10.30
2018-12-03T17:39:54.313Z,10.30
2018-12-03T17:42:22.917Z,10.40
2018-12-03T17:44:51.570Z,10.40
2018-12-03T17:47:20.227Z,10.40
2018-12-03T17:49:48.853Z,10.40
2018-12-03T17:52:17.461Z,10.50
2018-12-03T17:54:46.038Z,10.50
2018-12-03T17:57:14.645Z,10.50
2018-12-03T17:59:43.212Z,10.50
2018-12-03T18:02:11.798Z,10.60
2018-12-03T18:04:40.425Z,10.60
2018-12-03T18:07:09.292Z,10.70
2018-12-03T18:09:38.079Z,10.70
2018-12-03T18:12:06.790Z,10.70
2018-12-03T18:14:35.355Z,10.70
2018-12-03T18:17:04.542Z,10.70
2018-12-03T18:19:33.125Z,10.70
2018-12-03T18:22:01.748Z,10.70
2018-12-03T18:24:30.284Z,10.70
2018-12-03T18:26:58.860Z,10.80
2018-12-03T18:29:27.419Z,10.80
2018-12-03T18:31:55.984Z,10.80
2018-12-03T18:34:24.574Z,10.90
2018-12-03T18:36:53.169Z,10.80
2018-12-03T18:39:21.749Z,10.80
2018-12-03T18:41:50.441Z,10.90
2018-12-03T18:44:19.020Z,10.90
2018-12-03T18:46:47.602Z,10.90
2018-12-03T18:49:20.963Z,10.90
2018-12-03T18:51:49.540Z,10.80
2018-12-03T18:54:18.124Z,10.90
2018-12-03T18:56:46.698Z,10.90
2018-12-03T18:59:15.305Z,10.90
2018-12-03T19:01:43.874Z,11.00
2018-12-03T19:04:12.475Z,10.90
2018-12-03T19:06:41.044Z,11.00
2018-12-03T19:09:09.244Z,11.00
2018-12-03T19:11:37.785Z,11.00
2018-12-03T19:14:06.396Z,11.00
2018-12-03T19:16:34.968Z,11.00
2018-12-03T19:19:03.537Z,11.00
2018-12-03T19:21:32.145Z,11.00
2018-12-03T19:24:00.716Z,11.00
2018-12-03T19:26:30.927Z,11.00
2018-12-03T19:28:59.492Z,11.10
2018-12-03T19:31:28.069Z,11.10
2018-12-03T19:33:56.641Z,11.10
2018-12-03T19:36:25.280Z,11.10
2018-12-03T19:38:54.110Z,11.10
2018-12-03T19:41:22.697Z,11.10
2018-12-03T19:43:51.297Z,11.00
2018-12-03T19:46:19.867Z,11.00
2018-12-03T19:48:48.477Z,11.00
2018-12-03T19:51:17.093Z,11.00
2018-12-03T19:53:45.915Z,11.00
2018-12-03T19:56:14.524Z,11.00
2018-12-03T19:58:45.729Z,11.00
2018-12-03T20:01:14.337Z,11.00
2018-12-03T20:03:42.903Z,11.00
2018-12-03T20:06:11.530Z,11.00
2018-12-03T20:08:40.111Z,11.00
2018-12-03T20:11:08.679Z,11.00
2018-12-03T20:13:37.257Z,11.00
2018-12-03T20:16:05.841Z,11.00
2018-12-03T20:18:34.398Z,11.00
2018-12-03T20:21:09.324Z,11.00
2018-12-03T20:23:45.105Z,11.10
2018-12-03T20:26:22.407Z,11.10
2018-12-03T20:28:59.602Z,11.00
2018-12-03T20:31:42.267Z,11.00
2018-12-03T20:34:21.093Z,11.00
2018-12-03T20:37:41.740Z,10.90
2018-12-03T20:41:19.101Z,10.90
2018-12-03T20:43:49.189Z,10.80
2018-12-03T20:46:24.995Z,10.80
2018-12-03T20:49:08.954Z,10.80
2018-12-03T20:51:39.689Z,10.80
2018-12-03T20:54:08.888Z,10.70
2018-12-03T20:56:38.343Z,10.70
2018-12-03T20:59:06.898Z,10.80
2018-12-03T21:01:39.108Z,10.70
2018-12-03T21:04:07.705Z,10.70
2018-12-03T21:06:36.344Z,10.70
2018-12-03T21:09:06.054Z,10.70
2018-12-03T21:11:34.642Z,10.70
2018-12-03T21:14:03.417Z,10.70
2018-12-03T21:16:31.987Z,10.60
2018-12-03T21:19:00.634Z,10.60
2018-12-03T21:21:29.209Z,10.60
2018-12-03T21:23:57.758Z,10.60
2018-12-03T21:26:26.329Z,10.70
2018-12-03T21:28:54.881Z,10.60
2018-12-03T21:31:23.901Z,10.70
2018-12-03T21:33:52.443Z,10.60
2018-12-03T21:36:21.000Z,10.60
2018-12-03T21:38:49.592Z,10.60
2018-12-03T21:41:18.177Z,10.60
2018-12-03T21:43:46.763Z,10.60
2018-12-03T21:46:15.330Z,10.70
2018-12-03T21:48:43.864Z,10.70
2018-12-03T21:51:12.488Z,10.70
2018-12-03T21:53:41.035Z,10.60
2018-12-03T21:56:09.641Z,10.60
2018-12-03T21:58:38.184Z,10.60
2018-12-03T22:01:06.777Z,10.60
2018-12-03T22:03:35.364Z,10.60
2018-12-03T22:06:03.942Z,10.60
2018-12-03T22:08:32.618Z,10.60
2018-12-03T22:11:01.164Z,10.60
2018-12-03T22:13:29.728Z,10.60
2018-12-03T22:15:58.321Z,10.60
2018-12-03T22:18:26.903Z,10.50
2018-12-03T22:20:55.452Z,10.50
2018-12-03T22:23:24.036Z,10.50
2018-12-03T22:25:52.577Z,10.50
2018-12-03T22:28:21.140Z,10.50
2018-12-03T22:30:49.676Z,10.40
2018-12-03T22:33:18.257Z,10.40
2018-12-03T22:35:46.853Z,10.40
2018-12-03T22:38:15.400Z,10.40
2018-12-03T22:40:43.956Z,10.40
2018-12-03T22:43:12.556Z,10.40
2018-12-03T22:45:41.095Z,10.40
2018-12-03T22:48:09.694Z,10.40
2018-12-03T22:50:38.248Z,10.40
2018-12-03T22:53:06.851Z,10.40
2018-12-03T22:55:35.484Z,10.40
2018-12-03T22:58:04.075Z,10.40
2018-12-03T23:00:36.952Z,10.40
2018-12-03T23:03:06.295Z,10.40
2018-12-03T23:05:34.874Z,10.40
2018-12-03T23:08:03.448Z,10.40
2018-12-03T23:10:32.044Z,10.40
2018-12-03T23:13:00.575Z,10.40
2018-12-03T23:15:29.161Z,10.40
2018-12-03T23:17:57.715Z,10.40
2018-12-03T23:20:26.285Z,10.40
2018-12-03T23:22:54.892Z,10.40
2018-12-03T23:25:23.464Z,10.40
2018-12-03T23:27:52.033Z,10.30
2018-12-03T23:30:20.611Z,10.30
2018-12-03T23:32:49.317Z,10.30
2018-12-03T23:35:17.872Z,10.30
2018-12-03T23:37:46.439Z,10.30
2018-12-03T23:40:15.081Z,10.30
2018-12-03T23:42:43.666Z,10.20
2018-12-03T23:45:12.243Z,10.20
2018-12-03T23:47:40.779Z,10.10
2018-12-03T23:50:09.364Z,10.10
2018-12-03T23:52:37.931Z,10.00
2018-12-03T23:55:06.608Z,10.00
2018-12-03T23:57:35.164Z,9.90
